sensor_id;sensor_type;location;lat;lon;timestamp;P1;durP1;ratioP1;P2;durP2;ratioP2
16314;SDS011;8266;52.150;4.768;2023-02-18T00:01:20;18.20;;;7.45;;
16314;SDS011;8266;52.150;4.768;2023-02-18T00:03:48;12.70;;;6.03;;
16314;SDS011;8266;52.150;4.768;2023-02-18T00:06:16;17.33;;;7.38;;
16314;SDS011;8266;52.150;4.768;2023-02-18T00:08:44;22.75;;;9.00;;
16314;SDS011;8266;52.150;4.768;2023-02-18T00:11:12;23.08;;;10.80;;
16314;SDS011;8266;52.150;4.768;2023-02-18T00:13:40;21.23;;;11.68;;
16314;SDS011;8266;52.150;4.768;2023-02-18T00:16:09;19.58;;;11.00;;
16314;SDS011;8266;52.150;4.768;2023-02-18T00:18:37;21.85;;;12.00;;
16314;SDS011;8266;52.150;4.768;2023-02-18T00:21:05;24.80;;;13.52;;
16314;SDS011;8266;52.150;4.768;2023-02-18T00:23:33;22.45;;;12.73;;
16314;SDS011;8266;52.150;4.768;2023-02-18T00:26:01;23.23;;;13.68;;
16314;SDS011;8266;52.150;4.768;2023-02-18T00:28:30;22.70;;;13.27;;
16314;SDS011;8266;52.150;4.768;2023-02-18T00:30:58;24.35;;;12.88;;
16314;SDS011;8266;52.150;4.768;2023-02-18T00:33:26;25.65;;;13.68;;
16314;SDS011;8266;52.150;4.768;2023-02-18T00:35:59;23.90;;;14.85;;
16314;SDS011;8266;52.150;4.768;2023-02-18T00:38:27;26.08;;;15.13;;
16314;SDS011;8266;52.150;4.768;2023-02-18T00:40:54;28.25;;;17.33;;
16314;SDS011;8266;52.150;4.768;2023-02-18T00:43:21;26.73;;;15.90;;
16314;SDS011;8266;52.150;4.768;2023-02-18T00:45:48;28.35;;;17.45;;
16314;SDS011;8266;52.150;4.768;2023-02-18T00:48:15;24.70;;;17.55;;
16314;SDS011;8266;52.150;4.768;2023-02-18T00:50:44;31.80;;;18.25;;
16314;SDS011;8266;52.150;4.768;2023-02-18T00:53:11;25.88;;;17.38;;
16314;SDS011;8266;52.150;4.768;2023-02-18T00:55:38;23.58;;;17.58;;
16314;SDS011;8266;52.150;4.768;2023-02-18T00:58:06;26.60;;;17.73;;
16314;SDS011;8266;52.150;4.768;2023-02-18T01:00:33;26.88;;;17.85;;
16314;SDS011;8266;52.150;4.768;2023-02-18T01:03:00;26.05;;;17.17;;
16314;SDS011;8266;52.150;4.768;2023-02-18T01:05:27;28.52;;;17.95;;
16314;SDS011;8266;52.150;4.768;2023-02-18T01:07:55;25.15;;;16.98;;
16314;SDS011;8266;52.150;4.768;2023-02-18T01:10:22;22.02;;;15.43;;
16314;SDS011;8266;52.150;4.768;2023-02-18T01:12:49;20.77;;;14.85;;
16314;SDS011;8266;52.150;4.768;2023-02-18T01:15:16;19.83;;;14.65;;
16314;SDS011;8266;52.150;4.768;2023-02-18T01:17:46;23.45;;;15.55;;
16314;SDS011;8266;52.150;4.768;2023-02-18T01:20:14;23.42;;;15.88;;
16314;SDS011;8266;52.150;4.768;2023-02-18T01:22:41;20.08;;;15.38;;
16314;SDS011;8266;52.150;4.768;2023-02-18T01:25:10;22.35;;;15.27;;
16314;SDS011;8266;52.150;4.768;2023-02-18T01:27:37;22.23;;;15.30;;
16314;SDS011;8266;52.150;4.768;2023-02-18T01:30:05;24.75;;;16.35;;
16314;SDS011;8266;52.150;4.768;2023-02-18T01:32:33;26.73;;;17.63;;
16314;SDS011;8266;52.150;4.768;2023-02-18T01:35:01;25.33;;;16.65;;
16314;SDS011;8266;52.150;4.768;2023-02-18T01:37:28;24.58;;;17.85;;
16314;SDS011;8266;52.150;4.768;2023-02-18T01:39:55;26.08;;;16.58;;
16314;SDS011;8266;52.150;4.768;2023-02-18T01:42:25;24.00;;;16.48;;
16314;SDS011;8266;52.150;4.768;2023-02-18T01:44:53;23.90;;;16.45;;
16314;SDS011;8266;52.150;4.768;2023-02-18T01:47:41;23.02;;;16.50;;
16314;SDS011;8266;52.150;4.768;2023-02-18T01:50:08;26.92;;;18.02;;
16314;SDS011;8266;52.150;4.768;2023-02-18T01:52:35;25.08;;;17.98;;
16314;SDS011;8266;52.150;4.768;2023-02-18T01:55:02;24.45;;;16.50;;
16314;SDS011;8266;52.150;4.768;2023-02-18T01:57:31;25.48;;;17.27;;
16314;SDS011;8266;52.150;4.768;2023-02-18T02:00:03;23.48;;;17.67;;
16314;SDS011;8266;52.150;4.768;2023-02-18T02:02:31;24.75;;;16.20;;
16314;SDS011;8266;52.150;4.768;2023-02-18T02:05:02;22.73;;;16.75;;
16314;SDS011;8266;52.150;4.768;2023-02-18T02:07:29;23.70;;;16.35;;
16314;SDS011;8266;52.150;4.768;2023-02-18T02:09:57;25.52;;;17.52;;
16314;SDS011;8266;52.150;4.768;2023-02-18T02:12:38;22.75;;;16.70;;
16314;SDS011;8266;52.150;4.768;2023-02-18T02:15:27;22.50;;;16.08;;
16314;SDS011;8266;52.150;4.768;2023-02-18T02:23:55;19.70;;;14.63;;
16314;SDS011;8266;52.150;4.768;2023-02-18T02:26:51;20.25;;;14.90;;
16314;SDS011;8266;52.150;4.768;2023-02-18T02:29:33;21.77;;;15.60;;
16314;SDS011;8266;52.150;4.768;2023-02-18T02:35:32;21.23;;;15.27;;
16314;SDS011;8266;52.150;4.768;2023-02-18T02:38:03;20.85;;;14.90;;
16314;SDS011;8266;52.150;4.768;2023-02-18T02:40:34;21.05;;;15.50;;
16314;SDS011;8266;52.150;4.768;2023-02-18T02:43:11;22.60;;;15.55;;
16314;SDS011;8266;52.150;4.768;2023-02-18T02:45:47;21.85;;;15.50;;
16314;SDS011;8266;52.150;4.768;2023-02-18T02:48:20;23.80;;;16.17;;
16314;SDS011;8266;52.150;4.768;2023-02-18T02:51:01;21.45;;;15.05;;
16314;SDS011;8266;52.150;4.768;2023-02-18T02:53:33;23.30;;;15.35;;
16314;SDS011;8266;52.150;4.768;2023-02-18T02:56:02;23.58;;;16.13;;
16314;SDS011;8266;52.150;4.768;2023-02-18T02:58:29;21.60;;;15.48;;
16314;SDS011;8266;52.150;4.768;2023-02-18T03:01:08;21.05;;;15.27;;
16314;SDS011;8266;52.150;4.768;2023-02-18T03:04:00;19.75;;;14.35;;
16314;SDS011;8266;52.150;4.768;2023-02-18T03:10:06;19.08;;;13.48;;
16314;SDS011;8266;52.150;4.768;2023-02-18T03:12:45;19.98;;;13.68;;
16314;SDS011;8266;52.150;4.768;2023-02-18T03:15:17;15.45;;;12.60;;
16314;SDS011;8266;52.150;4.768;2023-02-18T03:17:51;15.90;;;13.00;;
16314;SDS011;8266;52.150;4.768;2023-02-18T03:20:25;16.02;;;12.38;;
16314;SDS011;8266;52.150;4.768;2023-02-18T03:22:56;15.32;;;11.95;;
16314;SDS011;8266;52.150;4.768;2023-02-18T03:25:25;13.27;;;10.85;;
16314;SDS011;8266;52.150;4.768;2023-02-18T03:27:54;11.63;;;9.77;;
16314;SDS011;8266;52.150;4.768;2023-02-18T03:30:26;9.18;;;8.02;;
16314;SDS011;8266;52.150;4.768;2023-02-18T03:32:57;8.77;;;7.35;;
16314;SDS011;8266;52.150;4.768;2023-02-18T03:35:27;8.05;;;7.25;;
16314;SDS011;8266;52.150;4.768;2023-02-18T03:37:58;8.48;;;7.10;;
16314;SDS011;8266;52.150;4.768;2023-02-18T03:40:28;8.73;;;7.82;;
16314;SDS011;8266;52.150;4.768;2023-02-18T03:42:56;9.07;;;7.53;;
16314;SDS011;8266;52.150;4.768;2023-02-18T03:45:26;6.88;;;6.15;;
16314;SDS011;8266;52.150;4.768;2023-02-18T03:47:54;7.68;;;6.13;;
16314;SDS011;8266;52.150;4.768;2023-02-18T03:50:21;7.00;;;6.13;;
16314;SDS011;8266;52.150;4.768;2023-02-18T03:52:48;6.13;;;5.53;;
16314;SDS011;8266;52.150;4.768;2023-02-18T03:55:16;7.63;;;6.05;;
16314;SDS011;8266;52.150;4.768;2023-02-18T03:57:43;6.93;;;6.22;;
16314;SDS011;8266;52.150;4.768;2023-02-18T04:00:10;5.97;;;5.40;;
16314;SDS011;8266;52.150;4.768;2023-02-18T04:02:38;5.97;;;4.47;;
16314;SDS011;8266;52.150;4.768;2023-02-18T04:05:06;6.32;;;5.60;;
16314;SDS011;8266;52.150;4.768;2023-02-18T04:07:33;7.53;;;5.22;;
16314;SDS011;8266;52.150;4.768;2023-02-18T04:10:00;6.07;;;5.47;;
16314;SDS011;8266;52.150;4.768;2023-02-18T04:12:29;6.15;;;5.55;;
16314;SDS011;8266;52.150;4.768;2023-02-18T04:14:56;8.30;;;5.53;;
16314;SDS011;8266;52.150;4.768;2023-02-18T04:17:23;6.55;;;5.82;;
16314;SDS011;8266;52.150;4.768;2023-02-18T04:19:50;6.95;;;6.25;;
16314;SDS011;8266;52.150;4.768;2023-02-18T04:22:17;7.28;;;6.55;;
16314;SDS011;8266;52.150;4.768;2023-02-18T04:24:44;8.23;;;7.43;;
16314;SDS011;8266;52.150;4.768;2023-02-18T04:27:11;10.55;;;8.68;;
16314;SDS011;8266;52.150;4.768;2023-02-18T04:29:39;9.43;;;8.43;;
16314;SDS011;8266;52.150;4.768;2023-02-18T04:32:06;10.88;;;9.20;;
16314;SDS011;8266;52.150;4.768;2023-02-18T04:34:33;12.48;;;10.60;;
16314;SDS011;8266;52.150;4.768;2023-02-18T04:37:00;14.02;;;10.93;;
16314;SDS011;8266;52.150;4.768;2023-02-18T04:39:27;14.40;;;10.55;;
16314;SDS011;8266;52.150;4.768;2023-02-18T04:41:54;13.88;;;10.27;;
16314;SDS011;8266;52.150;4.768;2023-02-18T04:44:21;11.98;;;9.25;;
16314;SDS011;8266;52.150;4.768;2023-02-18T04:46:50;11.38;;;9.48;;
16314;SDS011;8266;52.150;4.768;2023-02-18T04:49:17;10.40;;;8.60;;
16314;SDS011;8266;52.150;4.768;2023-02-18T04:51:44;11.90;;;8.05;;
16314;SDS011;8266;52.150;4.768;2023-02-18T04:54:11;9.40;;;8.38;;
16314;SDS011;8266;52.150;4.768;2023-02-18T04:56:38;9.43;;;7.88;;
16314;SDS011;8266;52.150;4.768;2023-02-18T04:59:05;10.18;;;8.05;;
16314;SDS011;8266;52.150;4.768;2023-02-18T05:01:32;10.40;;;7.80;;
16314;SDS011;8266;52.150;4.768;2023-02-18T05:04:00;10.57;;;7.20;;
16314;SDS011;8266;52.150;4.768;2023-02-18T05:06:27;10.55;;;7.80;;
16314;SDS011;8266;52.150;4.768;2023-02-18T05:08:54;12.60;;;8.35;;
16314;SDS011;8266;52.150;4.768;2023-02-18T05:11:21;10.82;;;8.18;;
16314;SDS011;8266;52.150;4.768;2023-02-18T05:13:48;10.77;;;8.23;;
16314;SDS011;8266;52.150;4.768;2023-02-18T05:16:15;10.95;;;8.07;;
16314;SDS011;8266;52.150;4.768;2023-02-18T05:18:42;13.10;;;8.60;;
16314;SDS011;8266;52.150;4.768;2023-02-18T05:21:11;11.43;;;8.73;;
16314;SDS011;8266;52.150;4.768;2023-02-18T05:23:37;13.30;;;8.95;;
16314;SDS011;8266;52.150;4.768;2023-02-18T05:26:04;9.90;;;8.82;;
16314;SDS011;8266;52.150;4.768;2023-02-18T05:28:32;12.23;;;9.57;;
16314;SDS011;8266;52.150;4.768;2023-02-18T05:30:59;10.75;;;8.20;;
16314;SDS011;8266;52.150;4.768;2023-02-18T05:33:26;11.10;;;8.93;;
16314;SDS011;8266;52.150;4.768;2023-02-18T05:35:54;11.25;;;9.10;;
16314;SDS011;8266;52.150;4.768;2023-02-18T05:38:22;12.15;;;9.85;;
16314;SDS011;8266;52.150;4.768;2023-02-18T05:40:49;10.48;;;9.05;;
16314;SDS011;8266;52.150;4.768;2023-02-18T05:43:16;11.10;;;9.02;;
16314;SDS011;8266;52.150;4.768;2023-02-18T05:45:43;10.32;;;8.43;;
16314;SDS011;8266;52.150;4.768;2023-02-18T05:48:10;14.52;;;8.43;;
16314;SDS011;8266;52.150;4.768;2023-02-18T05:50:37;8.05;;;7.18;;
16314;SDS011;8266;52.150;4.768;2023-02-18T05:53:04;8.10;;;7.22;;
16314;SDS011;8266;52.150;4.768;2023-02-18T05:55:33;10.68;;;7.43;;
16314;SDS011;8266;52.150;4.768;2023-02-18T05:58:07;10.75;;;7.53;;
16314;SDS011;8266;52.150;4.768;2023-02-18T06:00:34;10.35;;;7.50;;
16314;SDS011;8266;52.150;4.768;2023-02-18T06:03:01;10.35;;;7.97;;
16314;SDS011;8266;52.150;4.768;2023-02-18T06:05:28;7.88;;;6.65;;
16314;SDS011;8266;52.150;4.768;2023-02-18T06:07:55;9.90;;;7.53;;
16314;SDS011;8266;52.150;4.768;2023-02-18T06:10:22;8.95;;;7.40;;
16314;SDS011;8266;52.150;4.768;2023-02-18T06:12:50;8.95;;;7.72;;
16314;SDS011;8266;52.150;4.768;2023-02-18T06:15:17;11.57;;;8.30;;
16314;SDS011;8266;52.150;4.768;2023-02-18T06:17:44;12.82;;;8.98;;
16314;SDS011;8266;52.150;4.768;2023-02-18T06:20:11;10.48;;;9.27;;
16314;SDS011;8266;52.150;4.768;2023-02-18T06:22:38;14.00;;;9.15;;
16314;SDS011;8266;52.150;4.768;2023-02-18T06:25:05;10.57;;;8.30;;
16314;SDS011;8266;52.150;4.768;2023-02-18T06:27:33;12.25;;;7.88;;
16314;SDS011;8266;52.150;4.768;2023-02-18T06:30:01;11.75;;;7.68;;
16314;SDS011;8266;52.150;4.768;2023-02-18T06:32:28;12.27;;;8.63;;
16314;SDS011;8266;52.150;4.768;2023-02-18T06:34:55;12.23;;;8.07;;
16314;SDS011;8266;52.150;4.768;2023-02-18T06:37:22;12.68;;;8.00;;
16314;SDS011;8266;52.150;4.768;2023-02-18T06:39:49;13.65;;;7.85;;
16314;SDS011;8266;52.150;4.768;2023-02-18T06:42:16;13.88;;;7.43;;
16314;SDS011;8266;52.150;4.768;2023-02-18T06:44:43;14.95;;;6.82;;
16314;SDS011;8266;52.150;4.768;2023-02-18T06:47:12;15.48;;;6.85;;
16314;SDS011;8266;52.150;4.768;2023-02-18T06:49:39;14.15;;;6.10;;
16314;SDS011;8266;52.150;4.768;2023-02-18T06:52:06;13.52;;;6.15;;
16314;SDS011;8266;52.150;4.768;2023-02-18T06:54:33;14.88;;;6.22;;
16314;SDS011;8266;52.150;4.768;2023-02-18T06:57:00;11.60;;;5.57;;
16314;SDS011;8266;52.150;4.768;2023-02-18T06:59:27;12.07;;;5.28;;
16314;SDS011;8266;52.150;4.768;2023-02-18T07:01:54;17.92;;;6.80;;
16314;SDS011;8266;52.150;4.768;2023-02-18T07:04:23;13.10;;;5.75;;
16314;SDS011;8266;52.150;4.768;2023-02-18T07:06:50;11.70;;;5.85;;
16314;SDS011;8266;52.150;4.768;2023-02-18T07:09:17;15.32;;;5.78;;
16314;SDS011;8266;52.150;4.768;2023-02-18T07:11:44;12.65;;;5.20;;
16314;SDS011;8266;52.150;4.768;2023-02-18T07:14:11;15.43;;;5.43;;
16314;SDS011;8266;52.150;4.768;2023-02-18T07:16:38;16.20;;;4.68;;
16314;SDS011;8266;52.150;4.768;2023-02-18T07:19:05;11.70;;;4.32;;
16314;SDS011;8266;52.150;4.768;2023-02-18T07:21:33;8.23;;;3.75;;
16314;SDS011;8266;52.150;4.768;2023-02-18T07:24:00;10.80;;;3.58;;
16314;SDS011;8266;52.150;4.768;2023-02-18T07:26:27;12.88;;;2.92;;
16314;SDS011;8266;52.150;4.768;2023-02-18T07:28:54;11.30;;;3.38;;
16314;SDS011;8266;52.150;4.768;2023-02-18T07:31:21;10.57;;;2.85;;
16314;SDS011;8266;52.150;4.768;2023-02-18T07:33:48;8.02;;;3.03;;
16314;SDS011;8266;52.150;4.768;2023-02-18T07:36:15;12.77;;;3.33;;
16314;SDS011;8266;52.150;4.768;2023-02-18T07:38:44;12.57;;;3.47;;
16314;SDS011;8266;52.150;4.768;2023-02-18T07:41:13;12.30;;;3.70;;
16314;SDS011;8266;52.150;4.768;2023-02-18T07:43:43;12.95;;;2.88;;
16314;SDS011;8266;52.150;4.768;2023-02-18T07:46:11;12.15;;;2.88;;
16314;SDS011;8266;52.150;4.768;2023-02-18T07:48:38;14.02;;;2.85;;
16314;SDS011;8266;52.150;4.768;2023-02-18T07:51:05;10.68;;;2.40;;
16314;SDS011;8266;52.150;4.768;2023-02-18T07:53:33;13.52;;;2.85;;
16314;SDS011;8266;52.150;4.768;2023-02-18T07:56:02;14.90;;;3.17;;
16314;SDS011;8266;52.150;4.768;2023-02-18T07:58:31;9.63;;;2.53;;
16314;SDS011;8266;52.150;4.768;2023-02-18T08:01:02;11.48;;;2.80;;
16314;SDS011;8266;52.150;4.768;2023-02-18T08:03:30;13.20;;;3.45;;
16314;SDS011;8266;52.150;4.768;2023-02-18T08:05:58;12.13;;;3.10;;
16314;SDS011;8266;52.150;4.768;2023-02-18T08:08:26;9.30;;;2.33;;
16314;SDS011;8266;52.150;4.768;2023-02-18T08:10:56;15.73;;;2.95;;
16314;SDS011;8266;52.150;4.768;2023-02-18T08:13:28;18.25;;;3.63;;
16314;SDS011;8266;52.150;4.768;2023-02-18T08:15:55;12.88;;;2.95;;
16314;SDS011;8266;52.150;4.768;2023-02-18T08:18:23;10.70;;;2.90;;
16314;SDS011;8266;52.150;4.768;2023-02-18T08:20:51;11.80;;;3.20;;
16314;SDS011;8266;52.150;4.768;2023-02-18T08:23:19;11.63;;;3.40;;
16314;SDS011;8266;52.150;4.768;2023-02-18T08:25:48;11.68;;;2.60;;
16314;SDS011;8266;52.150;4.768;2023-02-18T08:28:16;16.05;;;3.00;;
16314;SDS011;8266;52.150;4.768;2023-02-18T08:30:45;11.55;;;3.00;;
16314;SDS011;8266;52.150;4.768;2023-02-18T08:33:15;8.10;;;2.38;;
16314;SDS011;8266;52.150;4.768;2023-02-18T08:35:42;11.10;;;2.75;;
16314;SDS011;8266;52.150;4.768;2023-02-18T08:38:10;11.75;;;2.60;;
16314;SDS011;8266;52.150;4.768;2023-02-18T08:40:38;13.30;;;2.95;;
16314;SDS011;8266;52.150;4.768;2023-02-18T08:43:06;7.47;;;2.70;;
16314;SDS011;8266;52.150;4.768;2023-02-18T08:45:33;12.75;;;2.72;;
16314;SDS011;8266;52.150;4.768;2023-02-18T08:48:03;9.77;;;2.55;;
16314;SDS011;8266;52.150;4.768;2023-02-18T08:50:31;13.15;;;2.53;;
16314;SDS011;8266;52.150;4.768;2023-02-18T08:52:58;11.93;;;2.90;;
16314;SDS011;8266;52.150;4.768;2023-02-18T08:55:27;11.52;;;2.90;;
16314;SDS011;8266;52.150;4.768;2023-02-18T08:57:54;11.02;;;3.13;;
16314;SDS011;8266;52.150;4.768;2023-02-18T09:00:21;16.08;;;3.25;;
16314;SDS011;8266;52.150;4.768;2023-02-18T09:02:48;14.48;;;2.78;;
16314;SDS011;8266;52.150;4.768;2023-02-18T09:05:17;13.48;;;3.33;;
16314;SDS011;8266;52.150;4.768;2023-02-18T09:07:44;12.25;;;2.80;;
16314;SDS011;8266;52.150;4.768;2023-02-18T09:10:11;12.52;;;2.67;;
16314;SDS011;8266;52.150;4.768;2023-02-18T09:12:38;15.63;;;3.35;;
16314;SDS011;8266;52.150;4.768;2023-02-18T09:15:05;12.60;;;2.67;;
16314;SDS011;8266;52.150;4.768;2023-02-18T09:17:33;14.40;;;3.08;;
16314;SDS011;8266;52.150;4.768;2023-02-18T09:20:00;13.73;;;2.97;;
16314;SDS011;8266;52.150;4.768;2023-02-18T09:22:29;13.25;;;3.10;;
16314;SDS011;8266;52.150;4.768;2023-02-18T09:24:57;14.77;;;3.17;;
16314;SDS011;8266;52.150;4.768;2023-02-18T09:27:24;12.02;;;3.10;;
16314;SDS011;8266;52.150;4.768;2023-02-18T09:29:51;10.77;;;2.70;;
16314;SDS011;8266;52.150;4.768;2023-02-18T09:32:18;11.07;;;2.63;;
16314;SDS011;8266;52.150;4.768;2023-02-18T09:34:45;12.82;;;3.35;;
16314;SDS011;8266;52.150;4.768;2023-02-18T09:37:12;8.85;;;2.90;;
16314;SDS011;8266;52.150;4.768;2023-02-18T09:39:42;10.90;;;3.00;;
16314;SDS011;8266;52.150;4.768;2023-02-18T09:42:10;21.55;;;3.67;;
16314;SDS011;8266;52.150;4.768;2023-02-18T09:44:41;11.38;;;3.53;;
16314;SDS011;8266;52.150;4.768;2023-02-18T09:47:11;12.57;;;2.63;;
16314;SDS011;8266;52.150;4.768;2023-02-18T09:49:42;11.57;;;2.33;;
16314;SDS011;8266;52.150;4.768;2023-02-18T09:52:13;8.15;;;2.67;;
16314;SDS011;8266;52.150;4.768;2023-02-18T09:54:45;11.95;;;2.88;;
16314;SDS011;8266;52.150;4.768;2023-02-18T09:57:14;9.85;;;2.38;;
16314;SDS011;8266;52.150;4.768;2023-02-18T09:59:48;12.88;;;2.70;;
16314;SDS011;8266;52.150;4.768;2023-02-18T10:02:21;14.10;;;2.80;;
16314;SDS011;8266;52.150;4.768;2023-02-18T10:04:49;13.15;;;2.70;;
16314;SDS011;8266;52.150;4.768;2023-02-18T10:07:18;10.70;;;2.33;;
16314;SDS011;8266;52.150;4.768;2023-02-18T10:09:51;11.93;;;2.60;;
16314;SDS011;8266;52.150;4.768;2023-02-18T10:12:21;11.95;;;2.30;;
16314;SDS011;8266;52.150;4.768;2023-02-18T10:14:51;10.20;;;3.00;;
16314;SDS011;8266;52.150;4.768;2023-02-18T10:17:20;9.90;;;2.63;;
16314;SDS011;8266;52.150;4.768;2023-02-18T10:19:49;15.02;;;3.42;;
16314;SDS011;8266;52.150;4.768;2023-02-18T10:22:18;9.40;;;1.77;;
16314;SDS011;8266;52.150;4.768;2023-02-18T10:24:47;7.47;;;1.88;;
16314;SDS011;8266;52.150;4.768;2023-02-18T10:27:20;8.20;;;2.17;;
16314;SDS011;8266;52.150;4.768;2023-02-18T10:29:50;9.30;;;2.10;;
16314;SDS011;8266;52.150;4.768;2023-02-18T10:32:18;9.55;;;2.75;;
16314;SDS011;8266;52.150;4.768;2023-02-18T10:34:48;10.70;;;2.13;;
16314;SDS011;8266;52.150;4.768;2023-02-18T10:37:25;8.98;;;2.45;;
16314;SDS011;8266;52.150;4.768;2023-02-18T10:40:05;9.85;;;2.35;;
16314;SDS011;8266;52.150;4.768;2023-02-18T10:42:42;12.50;;;3.85;;
16314;SDS011;8266;52.150;4.768;2023-02-18T10:45:20;8.88;;;1.98;;
16314;SDS011;8266;52.150;4.768;2023-02-18T10:47:59;7.22;;;2.50;;
16314;SDS011;8266;52.150;4.768;2023-02-18T10:50:45;15.00;;;3.00;;
16314;SDS011;8266;52.150;4.768;2023-02-18T10:53:13;10.65;;;2.40;;
16314;SDS011;8266;52.150;4.768;2023-02-18T10:55:44;8.98;;;2.33;;
16314;SDS011;8266;52.150;4.768;2023-02-18T10:58:25;7.90;;;1.80;;
16314;SDS011;8266;52.150;4.768;2023-02-18T11:00:56;8.07;;;2.22;;
16314;SDS011;8266;52.150;4.768;2023-02-18T11:03:27;8.85;;;2.25;;
16314;SDS011;8266;52.150;4.768;2023-02-18T11:06:05;8.40;;;2.47;;
16314;SDS011;8266;52.150;4.768;2023-02-18T11:08:41;7.05;;;2.25;;
16314;SDS011;8266;52.150;4.768;2023-02-18T11:11:12;12.25;;;3.65;;
16314;SDS011;8266;52.150;4.768;2023-02-18T11:13:43;8.25;;;2.15;;
16314;SDS011;8266;52.150;4.768;2023-02-18T11:16:10;10.73;;;2.35;;
16314;SDS011;8266;52.150;4.768;2023-02-18T11:18:39;10.05;;;2.38;;
16314;SDS011;8266;52.150;4.768;2023-02-18T11:21:18;11.88;;;2.97;;
16314;SDS011;8266;52.150;4.768;2023-02-18T11:23:50;7.75;;;2.03;;
16314;SDS011;8266;52.150;4.768;2023-02-18T11:26:20;8.27;;;2.00;;
16314;SDS011;8266;52.150;4.768;2023-02-18T11:28:57;9.55;;;2.13;;
16314;SDS011;8266;52.150;4.768;2023-02-18T11:31:30;8.90;;;1.67;;
16314;SDS011;8266;52.150;4.768;2023-02-18T11:34:10;9.38;;;1.98;;
16314;SDS011;8266;52.150;4.768;2023-02-18T11:36:42;7.30;;;2.33;;
16314;SDS011;8266;52.150;4.768;2023-02-18T11:39:14;8.40;;;2.03;;
16314;SDS011;8266;52.150;4.768;2023-02-18T11:41:45;8.27;;;2.00;;
16314;SDS011;8266;52.150;4.768;2023-02-18T11:44:20;6.70;;;1.75;;
16314;SDS011;8266;52.150;4.768;2023-02-18T11:46:55;9.60;;;2.80;;
16314;SDS011;8266;52.150;4.768;2023-02-18T11:49:24;8.65;;;2.20;;
16314;SDS011;8266;52.150;4.768;2023-02-18T11:51:53;6.90;;;1.88;;
16314;SDS011;8266;52.150;4.768;2023-02-18T11:54:28;6.20;;;2.33;;
16314;SDS011;8266;52.150;4.768;2023-02-18T11:56:56;7.60;;;1.73;;
16314;SDS011;8266;52.150;4.768;2023-02-18T11:59:28;6.15;;;1.52;;
16314;SDS011;8266;52.150;4.768;2023-02-18T12:01:59;6.65;;;1.35;;
16314;SDS011;8266;52.150;4.768;2023-02-18T12:04:33;6.78;;;1.58;;
16314;SDS011;8266;52.150;4.768;2023-02-18T12:07:11;4.45;;;1.25;;
16314;SDS011;8266;52.150;4.768;2023-02-18T12:09:43;7.72;;;1.50;;
16314;SDS011;8266;52.150;4.768;2023-02-18T12:12:14;4.57;;;1.08;;
16314;SDS011;8266;52.150;4.768;2023-02-18T12:14:46;6.95;;;1.95;;
16314;SDS011;8266;52.150;4.768;2023-02-18T12:17:17;6.13;;;1.92;;
16314;SDS011;8266;52.150;4.768;2023-02-18T12:19:59;6.78;;;2.05;;
16314;SDS011;8266;52.150;4.768;2023-02-18T12:22:40;5.28;;;1.55;;
16314;SDS011;8266;52.150;4.768;2023-02-18T12:25:19;7.43;;;1.80;;
16314;SDS011;8266;52.150;4.768;2023-02-18T12:27:55;6.03;;;1.35;;
16314;SDS011;8266;52.150;4.768;2023-02-18T12:30:57;8.45;;;2.03;;
16314;SDS011;8266;52.150;4.768;2023-02-18T12:33:40;5.93;;;1.92;;
16314;SDS011;8266;52.150;4.768;2023-02-18T12:36:23;5.70;;;1.40;;
16314;SDS011;8266;52.150;4.768;2023-02-18T12:39:02;4.45;;;1.50;;
16314;SDS011;8266;52.150;4.768;2023-02-18T12:44:37;6.13;;;1.77;;
16314;SDS011;8266;52.150;4.768;2023-02-18T12:47:29;4.85;;;1.50;;
16314;SDS011;8266;52.150;4.768;2023-02-18T12:53:13;3.03;;;1.30;;
16314;SDS011;8266;52.150;4.768;2023-02-18T12:55:53;5.28;;;1.50;;
16314;SDS011;8266;52.150;4.768;2023-02-18T12:58:30;5.03;;;1.95;;
16314;SDS011;8266;52.150;4.768;2023-02-18T13:04:04;4.63;;;2.00;;
16314;SDS011;8266;52.150;4.768;2023-02-18T13:10:04;6.47;;;1.50;;
16314;SDS011;8266;52.150;4.768;2023-02-18T13:13:02;6.70;;;2.83;;
16314;SDS011;8266;52.150;4.768;2023-02-18T13:15:36;8.63;;;2.65;;
16314;SDS011;8266;52.150;4.768;2023-02-18T13:18:08;6.40;;;1.60;;
16314;SDS011;8266;52.150;4.768;2023-02-18T13:20:40;4.00;;;1.95;;
16314;SDS011;8266;52.150;4.768;2023-02-18T13:23:12;8.15;;;1.80;;
16314;SDS011;8266;52.150;4.768;2023-02-18T13:25:44;5.68;;;1.20;;
16314;SDS011;8266;52.150;4.768;2023-02-18T13:28:15;5.28;;;1.67;;
16314;SDS011;8266;52.150;4.768;2023-02-18T13:30:47;5.13;;;1.48;;
16314;SDS011;8266;52.150;4.768;2023-02-18T13:33:26;6.63;;;1.52;;
16314;SDS011;8266;52.150;4.768;2023-02-18T13:36:02;5.10;;;1.90;;
16314;SDS011;8266;52.150;4.768;2023-02-18T13:38:45;4.80;;;1.30;;
16314;SDS011;8266;52.150;4.768;2023-02-18T13:41:19;4.97;;;1.83;;
16314;SDS011;8266;52.150;4.768;2023-02-18T13:43:47;6.70;;;1.88;;
16314;SDS011;8266;52.150;4.768;2023-02-18T13:46:14;2.47;;;1.05;;
16314;SDS011;8266;52.150;4.768;2023-02-18T13:48:44;6.25;;;1.38;;
16314;SDS011;8266;52.150;4.768;2023-02-18T13:51:16;3.03;;;1.25;;
16314;SDS011;8266;52.150;4.768;2023-02-18T13:53:55;5.30;;;1.98;;
16314;SDS011;8266;52.150;4.768;2023-02-18T13:56:28;4.95;;;1.45;;
16314;SDS011;8266;52.150;4.768;2023-02-18T13:58:58;4.38;;;1.30;;
16314;SDS011;8266;52.150;4.768;2023-02-18T14:01:36;4.43;;;1.48;;
16314;SDS011;8266;52.150;4.768;2023-02-18T14:10:24;4.40;;;1.30;;
16314;SDS011;8266;52.150;4.768;2023-02-18T14:15:54;7.55;;;1.80;;
16314;SDS011;8266;52.150;4.768;2023-02-18T14:18:25;9.48;;;2.30;;
16314;SDS011;8266;52.150;4.768;2023-02-18T14:21:03;4.55;;;1.70;;
16314;SDS011;8266;52.150;4.768;2023-02-18T14:23:58;6.78;;;1.58;;
16314;SDS011;8266;52.150;4.768;2023-02-18T14:26:28;6.47;;;1.65;;
16314;SDS011;8266;52.150;4.768;2023-02-18T14:28:59;4.88;;;1.67;;
16314;SDS011;8266;52.150;4.768;2023-02-18T14:34:29;3.60;;;1.35;;
16314;SDS011;8266;52.150;4.768;2023-02-18T14:40:26;6.90;;;2.17;;
16314;SDS011;8266;52.150;4.768;2023-02-18T14:43:29;8.85;;;2.25;;
16314;SDS011;8266;52.150;4.768;2023-02-18T14:46:09;3.35;;;1.40;;
16314;SDS011;8266;52.150;4.768;2023-02-18T14:48:49;2.63;;;1.20;;
16314;SDS011;8266;52.150;4.768;2023-02-18T14:51:34;5.65;;;1.40;;
16314;SDS011;8266;52.150;4.768;2023-02-18T14:54:04;4.20;;;1.60;;
16314;SDS011;8266;52.150;4.768;2023-02-18T14:56:38;4.45;;;1.50;;
16314;SDS011;8266;52.150;4.768;2023-02-18T14:59:14;5.55;;;1.38;;
16314;SDS011;8266;52.150;4.768;2023-02-18T15:01:45;7.45;;;1.67;;
16314;SDS011;8266;52.150;4.768;2023-02-18T15:04:13;3.55;;;1.50;;
16314;SDS011;8266;52.150;4.768;2023-02-18T15:06:41;6.25;;;1.30;;
16314;SDS011;8266;52.150;4.768;2023-02-18T15:09:12;5.22;;;1.52;;
16314;SDS011;8266;52.150;4.768;2023-02-18T15:11:43;3.47;;;1.17;;
16314;SDS011;8266;52.150;4.768;2023-02-18T15:14:13;3.78;;;1.30;;
16314;SDS011;8266;52.150;4.768;2023-02-18T15:16:44;4.15;;;1.45;;
16314;SDS011;8266;52.150;4.768;2023-02-18T15:19:12;4.45;;;1.30;;
16314;SDS011;8266;52.150;4.768;2023-02-18T15:21:42;5.85;;;2.20;;
16314;SDS011;8266;52.150;4.768;2023-02-18T15:24:15;4.55;;;1.35;;
16314;SDS011;8266;52.150;4.768;2023-02-18T15:26:51;3.95;;;1.63;;
16314;SDS011;8266;52.150;4.768;2023-02-18T15:29:21;5.22;;;1.42;;
16314;SDS011;8266;52.150;4.768;2023-02-18T15:31:49;3.50;;;1.20;;
16314;SDS011;8266;52.150;4.768;2023-02-18T15:37:01;6.60;;;1.60;;
16314;SDS011;8266;52.150;4.768;2023-02-18T15:39:29;2.65;;;1.15;;
16314;SDS011;8266;52.150;4.768;2023-02-18T15:41:59;2.33;;;1.20;;
16314;SDS011;8266;52.150;4.768;2023-02-18T15:44:31;7.57;;;1.90;;
16314;SDS011;8266;52.150;4.768;2023-02-18T15:47:01;5.40;;;1.67;;
16314;SDS011;8266;52.150;4.768;2023-02-18T15:49:31;6.10;;;1.50;;
16314;SDS011;8266;52.150;4.768;2023-02-18T15:51:59;5.75;;;1.48;;
16314;SDS011;8266;52.150;4.768;2023-02-18T15:54:27;6.57;;;1.83;;